Terminal Aerodrome Forecast
Issued by NWS

Home | Current Version | Previous Version | Text Only | Print | Product List | Glossary On
Versions: 1 2 3 4 5 6 7 8 9 10 11 12 13 14
000
FTUS45 KRIW 272100 AAA
TAFBPI
TAF AMD
KBPI 272142Z 2722/2818 15010KT 4SM RA BR VCTS OVC030CB
     FM280300 12008KT 5SM SHRA VCTS FEW015 OVC035CB
     FM280800 VRB06KT 4SM SHRA BR SCT012 OVC025=

USA.gov is the U.S. government's official web portal to all federal, state and local government web resources and services.